Colony, Wyoming
Current Conditions -  °F | °C
As of 4:55 AM on Monday 26 Jan 2015 (Local Time) from KSPF Reporting Station
Clear Clear  
Wind Chill: 52°   Ceiling: Unl
Heat Index: 52°   Visibility: 10mi
Dew Point: 28°   Wind: 12mph
Humidity: 41%   Direction: 270°W
Pressure: 30.04"   Gusts: 21mph
Location:  44.87°N, 104.15°W
Report Text: KSPF 261155Z AUTO 27010G18KT 10SM CLR 11/M02 A3004 RMK AO2
Loading
Personal Weather Stations






























Interactive Weather Map New forecast layout! Learn more

10-Day Weather Forecast

Advertisements
Track Severe Weather on mobile